Time;durP1;ratioP1;P1;durP2;ratioP2;P2;SDS_P1;SDS_P2;PMS_P1;PMS_P2;Temp;Humidity;BMP_temperature;BMP_pressure;BME280_temperature;BME280_humidity;BME280_pressure;Samples;Min_cycle;Max_cycle;Signal;HPM_P1;HPM_P2
2021/09/17 00:02:12;;;;;;;2.92;2.70;;;;;;;35.74;27.81;97723.50;5074130;28;20040;-86
2021/09/17 00:04:38;;;;;;;5.38;3.42;;;;;;;35.69;28.12;97721.44;5073072;28;20021;-87
2021/09/17 00:07:04;;;;;;;2.55;2.20;;;;;;;35.71;27.57;97718.06;5073458;28;20033;-86
2021/09/17 00:09:30;;;;;;;4.68;3.47;;;;;;;35.78;27.39;97723.25;5071834;28;20039;-86
2021/09/17 00:11:56;;;;;;;3.58;3.10;;;;;;;35.66;27.67;97725.31;5072082;28;20395;-86
2021/09/17 00:14:22;;;;;;;6.35;3.30;;;;;;;35.42;28.28;97725.09;5073435;28;20507;-86
2021/09/17 00:16:48;;;;;;;4.70;3.97;;;;;;;35.09;28.69;97728.72;5072085;28;20033;-86
2021/09/17 00:19:14;;;;;;;4.40;3.17;;;;;;;35.22;28.66;97711.06;5073277;28;20043;-86
2021/09/17 00:21:40;;;;;;;4.75;3.58;;;;;;;34.97;29.02;97723.50;5072815;28;20029;-87
2021/09/17 00:24:06;;;;;;;4.10;3.70;;;;;;;34.49;29.92;97713.03;5068873;28;20483;-87
2021/09/17 00:26:33;;;;;;;4.13;2.70;;;;;;;34.52;29.48;97706.31;5071810;28;20472;-87
2021/09/17 00:28:59;;;;;;;2.70;2.05;;;;;;;34.69;29.27;97712.84;5073131;28;20029;-86
2021/09/17 00:31:25;;;;;;;2.53;2.25;;;;;;;34.90;28.86;97704.03;5072523;28;20040;-86
2021/09/17 00:33:51;;;;;;;3.75;2.67;;;;;;;34.70;29.13;97688.72;5070737;28;20029;-86
2021/09/17 00:36:17;;;;;;;3.05;2.53;;;;;;;34.47;29.95;97692.78;5068374;28;20029;-86
2021/09/17 00:38:43;;;;;;;4.85;2.55;;;;;;;34.70;29.06;97697.25;5071803;28;20033;-86
2021/09/17 00:41:11;;;;;;;2.55;2.30;;;;;;;35.11;28.62;97697.59;5063937;28;20041;-86
2021/09/17 00:43:38;;;;;;;3.45;2.33;;;;;;;35.37;28.22;97691.59;5071417;28;20119;-86
2021/09/17 00:46:04;;;;;;;4.70;3.70;;;;;;;34.64;29.34;97687.16;5071190;28;20074;-86
2021/09/17 00:48:30;;;;;;;3.10;2.80;;;;;;;33.91;30.89;97686.09;5069441;28;20055;-86
2021/09/17 00:50:56;;;;;;;4.72;3.42;;;;;;;34.04;30.44;97686.44;5071610;28;20028;-85
2021/09/17 00:53:22;;;;;;;5.00;3.22;;;;;;;34.33;29.71;97681.63;5070884;28;20053;-86
2021/09/17 00:55:48;;;;;;;2.33;2.13;;;;;;;34.39;29.30;97674.63;5071092;28;20029;-86
2021/09/17 00:58:14;;;;;;;3.22;2.70;;;;;;;34.72;29.00;97668.25;5072435;28;20040;-86
2021/09/17 01:00:40;;;;;;;3.35;2.75;;;;;;;35.11;28.03;97663.34;5071011;28;20446;-86
2021/09/17 01:03:06;;;;;;;2.78;2.53;;;;;;;35.09;28.50;97668.00;5071743;28;20036;-86
2021/09/17 01:05:34;;;;;;;3.67;2.38;;;;;;;35.11;28.19;97660.50;5069960;28;20041;-86
2021/09/17 01:08:00;;;;;;;2.60;2.40;;;;;;;35.27;28.27;97664.63;5071558;28;20103;-87
2021/09/17 01:10:28;;;;;;;3.35;2.58;;;;;;;35.42;28.02;97650.84;5071516;28;20033;-86
2021/09/17 01:12:55;;;;;;;2.65;2.03;;;;;;;35.53;27.78;97662.25;5069721;28;20071;-86
2021/09/17 01:15:21;;;;;;;4.28;3.13;;;;;;;35.66;27.65;97653.91;5071838;28;20032;-86
2021/09/17 01:17:48;;;;;;;2.97;2.67;;;;;;;35.87;26.99;97648.66;5068396;28;20032;-86
2021/09/17 01:20:17;;;;;;;4.18;2.50;;;;;;;35.87;27.52;97646.56;5070959;28;20043;-86
2021/09/17 01:22:44;;;;;;;3.08;2.80;;;;;;;34.88;29.07;97635.31;5071030;28;20062;-86
2021/09/17 01:25:13;;;;;;;2.67;2.17;;;;;;;34.75;28.84;97639.44;5071685;28;20040;-87
2021/09/17 01:27:42;;;;;;;1.95;1.75;;;;;;;34.93;28.53;97631.66;5071759;28;20028;-87
2021/09/17 01:30:10;;;;;;;1.50;1.40;;;;;;;35.20;28.05;97628.03;5071239;28;20028;-86
2021/09/17 01:32:41;;;;;;;2.28;1.30;;;;;;;35.59;27.68;97622.28;5070930;28;20029;-86
2021/09/17 01:35:08;;;;;;;1.52;1.42;;;;;;;35.82;26.74;97615.94;5070898;28;20519;-86
2021/09/17 01:37:35;;;;;;;2.35;1.70;;;;;;;35.86;27.15;97615.66;5069225;28;20040;-86
2021/09/17 01:40:01;;;;;;;1.65;1.40;;;;;;;35.76;27.22;97612.31;5070482;28;20405;-86
2021/09/17 01:42:27;;;;;;;2.90;2.22;;;;;;;35.57;27.55;97619.16;5070216;28;20025;-86
2021/09/17 01:44:53;;;;;;;2.85;1.90;;;;;;;35.21;28.25;97612.47;5071925;28;20494;-86
2021/09/17 01:47:19;;;;;;;2.03;1.83;;;;;;;35.49;27.61;97613.19;5070988;28;20484;-86
2021/09/17 01:49:45;;;;;;;2.85;1.95;;;;;;;35.78;27.07;97614.69;5070552;28;20082;-86
2021/09/17 01:52:11;;;;;;;2.63;2.42;;;;;;;35.98;26.61;97608.63;5070287;28;20041;-86
2021/09/17 01:54:37;;;;;;;2.40;2.10;;;;;;;36.17;26.39;97608.78;5071553;28;20032;-86
2021/09/17 01:57:04;;;;;;;2.45;2.00;;;;;;;36.24;26.92;97611.09;5070559;28;20029;-86
2021/09/17 01:59:31;;;;;;;1.65;1.55;;;;;;;36.19;26.74;97606.94;5070135;28;20283;-86
2021/09/17 02:01:57;;;;;;;1.63;1.52;;;;;;;36.12;26.95;97606.72;5072190;28;20090;-86
2021/09/17 02:04:23;;;;;;;1.83;1.73;;;;;;;35.92;27.16;97597.19;5071367;28;20046;-86
2021/09/17 02:06:49;;;;;;;2.13;1.92;;;;;;;35.97;27.16;97593.56;5071747;28;20391;-87
2021/09/17 02:09:15;;;;;;;2.08;1.63;;;;;;;36.01;26.98;97593.28;5071616;28;20033;-86
2021/09/17 02:11:41;;;;;;;1.90;1.52;;;;;;;35.78;27.20;97586.84;5070797;28;20115;-87
2021/09/17 02:14:08;;;;;;;2.17;1.52;;;;;;;35.83;27.30;97588.91;5071430;28;20557;-87
2021/09/17 02:16:34;;;;;;;2.42;2.22;;;;;;;35.37;27.88;97588.81;5069129;28;20032;-86
2021/09/17 02:19:00;;;;;;;2.65;1.98;;;;;;;35.09;28.58;97582.38;5072201;28;20488;-86
2021/09/17 02:21:26;;;;;;;1.92;1.58;;;;;;;35.46;27.49;97579.16;5070292;28;20047;-86
2021/09/17 02:23:52;;;;;;;1.38;1.20;;;;;;;35.83;26.98;97582.41;5070878;28;20178;-86
2021/09/17 02:26:19;;;;;;;3.08;2.10;;;;;;;35.70;27.34;97585.88;5070549;28;20043;-86
2021/09/17 02:28:45;;;;;;;2.20;2.10;;;;;;;35.05;28.31;97573.31;5071218;28;20369;-86
2021/09/17 02:31:12;;;;;;;3.55;1.90;;;;;;;34.63;29.15;97562.97;5070924;28;20483;-87
2021/09/17 02:33:38;;;;;;;1.52;1.42;;;;;;;34.75;28.86;97567.38;5070265;28;20032;-86
2021/09/17 02:36:04;;;;;;;1.92;1.75;;;;;;;34.93;28.54;97558.28;5069281;28;20571;-86
2021/09/17 02:38:30;;;;;;;4.22;2.03;;;;;;;34.90;28.80;97555.66;5071353;28;20512;-86
2021/09/17 02:40:57;;;;;;;2.95;2.10;;;;;;;34.80;28.65;97558.00;5069635;28;20024;-86
2021/09/17 02:43:23;;;;;;;3.35;2.25;;;;;;;34.93;28.73;97551.78;5071111;28;20476;-86
2021/09/17 02:45:49;;;;;;;2.58;2.22;;;;;;;34.87;28.47;97548.16;5070018;28;20031;-86
2021/09/17 02:48:15;;;;;;;2.60;2.20;;;;;;;34.75;28.66;97553.13;5069008;28;20029;-86
2021/09/17 02:50:41;;;;;;;3.00;2.47;;;;;;;34.82;28.95;97546.09;5069263;28;20028;-86
2021/09/17 02:53:07;;;;;;;4.50;3.28;;;;;;;34.72;29.10;97551.28;5070809;28;20048;-86
2021/09/17 02:55:34;;;;;;;3.53;2.75;;;;;;;34.37;29.51;97546.09;5067972;28;20126;-86
2021/09/17 02:58:03;;;;;;;4.25;3.15;;;;;;;34.45;29.36;97541.41;5069908;28;20028;-85
2021/09/17 03:00:30;;;;;;;4.40;2.58;;;;;;;34.36;29.56;97543.72;5071507;28;20070;-85
2021/09/17 03:02:56;;;;;;;4.40;3.28;;;;;;;34.32;29.83;97535.44;5073637;28;20040;-86
2021/09/17 03:05:22;;;;;;;4.47;3.65;;;;;;;34.25;29.71;97538.03;5072972;28;20075;-85
2021/09/17 03:07:49;;;;;;;3.03;2.40;;;;;;;34.13;29.82;97525.84;5074363;28;20032;-86
2021/09/17 03:10:15;;;;;;;3.10;2.90;;;;;;;34.23;29.74;97530.00;5070119;28;20033;-87
2021/09/17 03:12:41;;;;;;;3.95;2.88;;;;;;;34.36;29.57;97532.34;5072471;28;20032;-86
2021/09/17 03:15:08;;;;;;;3.90;3.03;;;;;;;34.39;29.70;97523.53;5074245;28;20058;-85
2021/09/17 03:17:34;;;;;;;7.10;3.95;;;;;;;33.29;31.43;97524.00;5073184;28;20047;-84
2021/09/17 03:20:00;;;;;;;3.85;3.15;;;;;;;33.48;31.12;97527.19;5073268;28;20573;-84
2021/09/17 03:22:26;;;;;;;4.70;3.85;;;;;;;32.44;32.95;97523.16;5074388;28;20041;-83
2021/09/17 03:24:52;;;;;;;5.95;4.18;;;;;;;31.77;34.12;97531.00;5073454;28;20028;-83
2021/09/17 03:27:19;;;;;;;6.22;3.97;;;;;;;30.99;35.83;97522.81;5073657;28;20120;-83
2021/09/17 03:29:45;;;;;;;6.28;5.05;;;;;;;29.97;37.14;97520.84;5074085;28;20036;-83
2021/09/17 03:32:11;;;;;;;6.47;4.97;;;;;;;29.67;38.38;97522.84;5069393;28;20503;-83
2021/09/17 03:34:37;;;;;;;6.22;4.68;;;;;;;30.34;37.06;97524.88;5072225;28;20070;-83
2021/09/17 03:37:03;;;;;;;7.43;5.53;;;;;;;31.09;35.62;97521.38;5071232;28;20025;-83
2021/09/17 03:39:29;;;;;;;6.18;4.90;;;;;;;31.96;34.17;97517.25;5072546;28;20028;-84
2021/09/17 03:41:55;;;;;;;6.88;5.13;;;;;;;30.75;36.09;97522.94;5074335;28;20046;-84
2021/09/17 03:44:21;;;;;;;6.00;4.30;;;;;;;30.08;37.49;97519.00;5071647;28;20055;-85
2021/09/17 03:46:47;;;;;;;5.05;4.55;;;;;;;28.68;40.28;97525.09;5073650;28;20043;-85
2021/09/17 03:49:14;;;;;;;4.75;3.83;;;;;;;28.64;41.18;97535.00;5072217;28;20560;-84
2021/09/17 03:51:40;;;;;;;3.90;3.50;;;;;;;28.88;40.41;97533.00;5073568;28;20045;-84
2021/09/17 03:54:06;;;;;;;5.93;4.45;;;;;;;28.72;40.85;97531.38;5071218;28;20518;-83
2021/09/17 03:56:32;;;;;;;3.53;2.92;;;;;;;28.02;41.92;97527.06;5075965;28;20507;-83
2021/09/17 03:58:59;;;;;;;5.65;4.82;;;;;;;27.31;43.24;97528.63;5073343;28;21781;-83
2021/09/17 04:01:25;;;;;;;5.75;3.60;;;;;;;27.21;43.63;97524.25;5072806;28;20036;-84
2021/09/17 04:03:51;;;;;;;7.85;5.07;;;;;;;26.40;46.22;97528.41;5068640;28;20047;-82
2021/09/17 04:06:17;;;;;;;4.65;4.20;;;;;;;27.12;44.62;97522.19;5070505;28;20028;-84
2021/09/17 04:08:43;;;;;;;4.97;4.35;;;;;;;27.00;44.47;97525.19;5061706;28;20396;-83
2021/09/17 04:11:09;;;;;;;6.57;5.80;;;;;;;26.69;45.41;97526.03;5071011;28;20400;-84
2021/09/17 04:13:35;;;;;;;5.15;4.45;;;;;;;26.80;44.88;97527.63;5071888;28;20040;-89
2021/09/17 04:16:01;;;;;;;7.47;5.82;;;;;;;26.73;45.07;97529.47;5072810;28;20047;-85
2021/09/17 04:18:27;;;;;;;7.55;5.60;;;;;;;25.91;46.63;97524.69;5070919;28;20046;-88
2021/09/17 04:20:53;;;;;;;4.38;3.97;;;;;;;27.29;44.11;97528.31;5073229;28;20081;-87
2021/09/17 04:23:19;;;;;;;10.75;7.60;;;;;;;26.36;45.61;97526.97;5073612;28;20082;-87
2021/09/17 04:25:45;;;;;;;7.93;6.32;;;;;;;26.20;46.65;97525.19;5071535;28;20040;-86
2021/09/17 04:28:11;;;;;;;6.97;5.32;;;;;;;27.16;43.72;97519.25;5068978;28;20060;-87
2021/09/17 04:30:37;;;;;;;9.30;5.35;;;;;;;26.34;46.14;97521.03;5075861;28;20032;-86
2021/09/17 04:33:03;;;;;;;7.95;6.20;;;;;;;26.11;46.35;97519.53;5079847;28;20052;-86
2021/09/17 04:35:29;;;;;;;6.88;5.15;;;;;;;26.14;46.75;97515.78;5082957;28;20089;-86
2021/09/17 04:37:59;;;;;;;6.18;4.85;;;;;;;26.20;46.32;97515.97;5076167;28;20444;-86
2021/09/17 04:40:26;;;;;;;3.80;3.45;;;;;;;26.54;45.58;97513.75;5071630;28;20480;-86
2021/09/17 04:42:52;;;;;;;4.75;3.75;;;;;;;26.98;44.31;97510.78;5070550;28;20056;-87
2021/09/17 04:45:19;;;;;;;7.75;5.78;;;;;;;25.54;47.55;97509.59;5103765;28;20031;-86
2021/09/17 04:47:45;;;;;;;10.77;7.28;;;;;;;25.03;48.64;97514.63;5070383;28;20041;-87
2021/09/17 04:50:11;;;;;;;7.72;6.55;;;;;;;24.94;48.82;97513.75;5053907;28;20029;-86
2021/09/17 04:52:38;;;;;;;8.90;7.22;;;;;;;25.01;48.36;97519.91;5072459;28;20455;-87
2021/09/17 04:55:04;;;;;;;8.38;6.32;;;;;;;25.75;46.27;97517.25;5072358;28;20037;-86
2021/09/17 04:57:31;;;;;;;8.23;6.63;;;;;;;25.49;46.78;97517.84;5070751;28;20017;-86
2021/09/17 04:59:57;;;;;;;8.95;6.40;;;;;;;24.53;49.16;97525.91;5074710;28;20506;-88
2021/09/17 05:02:23;;;;;;;7.05;5.40;;;;;;;23.62;50.55;97535.13;5072573;28;20052;-87
2021/09/17 05:04:49;;;;;;;7.13;6.00;;;;;;;22.88;52.47;97526.69;5070088;28;20039;-86
2021/09/17 05:07:15;;;;;;;6.70;5.20;;;;;;;22.59;52.96;97534.97;5070516;28;20043;-89
2021/09/17 05:09:41;;;;;;;7.88;6.28;;;;;;;23.12;50.65;97525.25;5068430;28;20033;-87
2021/09/17 05:12:08;;;;;;;7.25;6.53;;;;;;;23.24;50.18;97524.50;5072225;28;20394;-87
2021/09/17 05:14:34;;;;;;;7.47;5.38;;;;;;;23.72;48.19;97517.97;5072404;28;20028;-89
2021/09/17 05:17:01;;;;;;;5.45;4.40;;;;;;;22.81;50.66;97537.28;5067798;28;20037;-85
2021/09/17 05:19:27;;;;;;;7.47;4.50;;;;;;;23.59;48.49;97536.78;5071124;28;20395;-89
2021/09/17 05:21:54;;;;;;;8.70;5.05;;;;;;;23.11;49.53;97532.09;5072124;28;20098;-90
2021/09/17 05:24:23;;;;;;;6.18;4.40;;;;;;;23.51;48.47;97535.41;5072800;28;20177;-91
2021/09/17 05:26:50;;;;;;;4.10;3.58;;;;;;;24.36;46.70;97547.72;5072213;28;20107;-90
2021/09/17 05:29:17;;;;;;;4.13;3.00;;;;;;;24.68;45.50;97552.28;5066472;28;20033;-90
2021/09/17 05:31:43;;;;;;;3.30;3.03;;;;;;;25.04;44.51;97546.31;5073365;28;20025;-89
2021/09/17 05:34:09;;;;;;;4.38;3.97;;;;;;;24.84;44.19;97557.81;5073253;28;20036;-90
2021/09/17 05:36:35;;;;;;;4.32;3.38;;;;;;;26.61;40.78;97558.53;5072214;28;20395;-90
2021/09/17 05:39:01;;;;;;;3.17;2.88;;;;;;;26.89;39.51;97562.22;5073415;28;20047;-90
2021/09/17 05:41:27;;;;;;;3.75;2.80;;;;;;;28.10;37.35;97552.13;5072024;28;20040;-89
2021/09/17 05:43:53;;;;;;;4.07;2.80;;;;;;;28.64;35.60;97558.41;5072824;28;20047;-89
2021/09/17 05:46:20;;;;;;;4.82;3.72;;;;;;;27.78;36.71;97565.63;5073023;28;20035;-89
2021/09/17 05:48:46;;;;;;;2.63;2.42;;;;;;;28.47;36.31;97562.81;5072859;28;20036;-89
2021/09/17 05:51:12;;;;;;;3.58;3.10;;;;;;;26.44;39.70;97574.09;5073343;28;20031;-89
2021/09/17 05:53:38;;;;;;;3.85;3.42;;;;;;;25.62;40.94;97586.06;5072099;28;20416;-89
2021/09/17 05:56:04;;;;;;;4.05;3.47;;;;;;;25.19;42.30;97587.50;5093356;28;20394;-89
2021/09/17 05:58:31;;;;;;;2.55;2.35;;;;;;;25.80;41.60;97589.00;5089647;28;20033;-90
2021/09/17 06:00:58;;;;;;;3.33;3.03;;;;;;;27.06;38.55;97600.16;5066018;28;20116;-90
2021/09/17 06:03:24;;;;;;;2.38;2.17;;;;;;;27.26;38.07;97596.91;5072700;28;20464;-90
2021/09/17 06:05:50;;;;;;;2.13;1.92;;;;;;;28.47;35.71;97591.06;5072980;28;20029;-90
2021/09/17 06:08:17;;;;;;;2.47;2.28;;;;;;;28.91;35.06;97588.59;5073035;28;20082;-89
2021/09/17 06:10:43;;;;;;;2.00;1.77;;;;;;;28.82;34.89;97590.66;5073145;28;20078;-89
2021/09/17 06:13:09;;;;;;;2.28;1.80;;;;;;;29.00;34.36;97599.06;5071286;28;20047;-90
2021/09/17 06:15:35;;;;;;;1.42;1.30;;;;;;;28.76;34.69;97604.66;5072984;28;20082;-89
2021/09/17 06:18:01;;;;;;;1.27;1.17;;;;;;;27.87;36.09;97607.16;5071640;28;20040;-89
2021/09/17 06:20:27;;;;;;;1.40;1.30;;;;;;;28.00;35.34;97608.63;5072863;28;20029;-90
2021/09/17 06:22:53;;;;;;;1.17;1.08;;;;;;;28.00;36.02;97613.47;5072252;28;20404;-90
2021/09/17 06:25:21;;;;;;;1.55;1.33;;;;;;;29.03;34.00;97609.41;5072825;28;20108;-91
2021/09/17 06:27:48;;;;;;;1.15;1.10;;;;;;;29.21;33.57;97610.13;5072830;28;20041;-91
2021/09/17 06:30:17;;;;;;;0.80;0.80;;;;;;;30.07;32.21;97608.06;5072990;28;20032;-91
2021/09/17 06:32:44;;;;;;;1.33;1.23;;;;;;;29.81;32.51;97607.03;5073020;28;20029;-91
2021/09/17 06:35:11;;;;;;;1.23;0.93;;;;;;;30.27;32.07;97604.53;5073854;28;20040;-90
2021/09/17 06:37:45;;;;;;;1.35;1.25;;;;;;;30.59;31.44;97611.31;5076965;28;20060;-90
2021/09/17 06:40:12;;;;;;;2.20;1.75;;;;;;;30.26;31.90;97610.72;5076546;28;20112;-90
2021/09/17 06:42:38;;;;;;;2.08;1.88;;;;;;;29.80;32.78;97613.94;5076280;28;20399;-90
2021/09/17 06:45:05;;;;;;;2.22;2.05;;;;;;;29.41;33.40;97629.31;5076536;28;20476;-91
2021/09/17 06:47:31;;;;;;;1.95;1.85;;;;;;;29.40;33.65;97622.88;5076300;28;20464;-90
2021/09/17 06:49:59;;;;;;;1.67;1.58;;;;;;;29.12;34.04;97617.84;5086668;28;20039;-90
2021/09/17 06:52:26;;;;;;;1.70;1.13;;;;;;;29.50;33.44;97626.41;5087818;28;20045;-90
2021/09/17 06:54:52;;;;;;;1.30;1.20;;;;;;;29.54;32.86;97629.84;5069049;28;20085;-90
2021/09/17 06:57:18;;;;;;;0.85;0.85;;;;;;;28.85;34.41;97627.22;5075988;28;20040;-89
2021/09/17 06:59:44;;;;;;;1.17;1.08;;;;;;;28.28;34.86;97637.56;5076401;28;20029;-90
2021/09/17 07:02:10;;;;;;;0.70;0.70;;;;;;;27.85;35.89;97629.41;5074661;28;20392;-90
2021/09/17 07:04:36;;;;;;;1.58;0.98;;;;;;;28.25;35.27;97640.56;5075997;28;20036;-90
2021/09/17 07:07:03;;;;;;;0.88;0.77;;;;;;;28.26;35.01;97637.28;5076211;28;20035;-89
2021/09/17 07:09:29;;;;;;;0.70;0.70;;;;;;;27.46;36.38;97647.25;5076086;28;20480;-90
2021/09/17 07:11:55;;;;;;;0.70;0.70;;;;;;;27.49;35.86;97658.41;5075570;28;20112;-90
2021/09/17 07:14:21;;;;;;;1.10;1.00;;;;;;;27.62;35.60;97666.72;5076000;28;20028;-91
2021/09/17 07:16:47;;;;;;;0.70;0.70;;;;;;;26.94;36.65;97670.72;5074407;28;20040;-91
2021/09/17 07:19:13;;;;;;;1.23;0.50;;;;;;;26.60;36.85;97669.63;5108463;28;20108;-91
2021/09/17 07:21:39;;;;;;;0.40;0.40;;;;;;;27.03;36.02;97680.00;5075729;28;20033;-91
2021/09/17 07:24:05;;;;;;;0.95;0.80;;;;;;;26.53;36.91;97683.16;5075684;28;20051;-91
2021/09/17 07:26:31;;;;;;;0.60;0.60;;;;;;;26.59;36.82;97682.09;5068300;28;20037;-91
2021/09/17 07:28:57;;;;;;;0.85;0.85;;;;;;;26.47;36.74;97680.16;5075506;28;20486;-92
2021/09/17 07:31:23;;;;;;;1.10;1.00;;;;;;;26.34;37.24;97685.09;5075851;28;20407;-92
2021/09/17 07:33:50;;;;;;;1.00;0.90;;;;;;;26.35;37.34;97685.88;5075498;28;20025;-92
2021/09/17 07:36:16;;;;;;;1.35;1.00;;;;;;;27.32;35.53;97691.69;5074289;28;20460;-92
2021/09/17 07:38:42;;;;;;;1.42;1.00;;;;;;;27.40;34.84;97687.34;5075589;28;20032;-91
2021/09/17 07:41:08;;;;;;;0.95;0.85;;;;;;;28.10;34.17;97696.84;5075148;28;20075;-92
2021/09/17 07:43:34;;;;;;;1.10;0.98;;;;;;;28.00;34.08;97700.97;5082885;28;20526;-91
2021/09/17 07:46:00;;;;;;;1.65;1.55;;;;;;;28.18;33.98;97694.50;5074662;28;20488;-92
2021/09/17 07:48:26;;;;;;;1.42;1.33;;;;;;;28.92;32.55;97694.72;5058811;28;20032;-91
2021/09/17 07:50:53;;;;;;;1.48;1.20;;;;;;;29.32;31.99;97697.25;5090994;28;20067;-91
2021/09/17 07:53:19;;;;;;;1.52;1.42;;;;;;;29.57;31.26;97698.84;5068872;28;20052;-91
2021/09/17 07:55:45;;;;;;;0.85;0.85;;;;;;;29.68;31.30;97708.38;5074969;28;20032;-91
2021/09/17 07:58:13;;;;;;;0.70;0.70;;;;;;;29.46;31.77;97704.22;5074130;28;20178;-91
2021/09/17 08:00:39;;;;;;;0.57;0.57;;;;;;;29.87;31.10;97700.56;5075049;28;20039;-91
2021/09/17 08:03:06;;;;;;;0.55;0.55;;;;;;;28.94;32.44;97699.91;5074759;28;20033;-90
2021/09/17 08:05:32;;;;;;;0.75;0.40;;;;;;;29.56;31.77;97703.72;5075151;28;20028;-91
2021/09/17 08:07:58;;;;;;;0.50;0.50;;;;;;;29.70;31.42;97700.16;5075020;28;20036;-91
2021/09/17 08:10:24;;;;;;;0.52;0.50;;;;;;;29.34;31.64;97706.81;5074899;28;20032;-92
2021/09/17 08:12:50;;;;;;;4.07;0.65;;;;;;;29.99;30.80;97705.97;5074923;28;20028;-91
2021/09/17 08:15:16;;;;;;;0.65;0.60;;;;;;;29.87;31.08;97709.06;5074665;28;20431;-91
2021/09/17 08:17:42;;;;;;;1.40;0.60;;;;;;;29.65;31.20;97708.53;5074619;28;20032;-91
2021/09/17 08:20:10;;;;;;;0.57;0.47;;;;;;;29.66;31.17;97710.91;5074501;28;20040;-91
2021/09/17 08:22:36;;;;;;;0.68;0.60;;;;;;;30.13;30.58;97712.91;5074774;28;20039;-92
2021/09/17 08:25:04;;;;;;;0.65;0.60;;;;;;;29.82;31.30;97721.03;5062998;28;20040;-91
2021/09/17 08:27:30;;;;;;;0.60;0.60;;;;;;;30.24;30.59;97716.00;5053234;28;20032;-91
2021/09/17 08:29:56;;;;;;;0.88;0.80;;;;;;;30.66;30.05;97710.13;5054598;28;20063;-91
2021/09/17 08:32:22;;;;;;;2.60;0.82;;;;;;;31.02;29.38;97717.47;5054510;28;20064;-90
2021/09/17 08:34:48;;;;;;;0.50;0.50;;;;;;;31.35;28.85;97715.16;5058111;28;20032;-91
2021/09/17 08:37:14;;;;;;;0.93;0.93;;;;;;;31.12;29.14;97718.94;5074776;28;20032;-92
2021/09/17 08:39:40;;;;;;;1.73;1.05;;;;;;;31.15;29.23;97720.78;5093670;28;20032;-91
2021/09/17 08:42:08;;;;;;;1.20;1.10;;;;;;;31.57;28.94;97726.91;5094646;28;20086;-91
2021/09/17 08:44:35;;;;;;;1.20;1.10;;;;;;;31.80;28.59;97723.09;5092947;28;20036;-91
2021/09/17 08:47:02;;;;;;;1.58;1.25;;;;;;;31.16;29.03;97717.44;5074214;28;20452;-91
2021/09/17 08:49:29;;;;;;;0.60;0.60;;;;;;;30.99;29.46;97721.28;5071806;28;20029;-91
2021/09/17 08:51:55;;;;;;;1.13;1.02;;;;;;;31.11;29.11;97726.66;5065115;28;20087;-91
2021/09/17 08:54:21;;;;;;;1.30;0.60;;;;;;;30.85;29.52;97720.00;5072099;28;20024;-91
2021/09/17 08:56:47;;;;;;;0.63;0.63;;;;;;;30.64;29.88;97724.00;5073951;28;20107;-91
2021/09/17 08:59:13;;;;;;;2.53;0.70;;;;;;;30.75;29.85;97722.16;5073425;28;20050;-91
2021/09/17 09:01:39;;;;;;;0.50;0.50;;;;;;;31.16;29.14;97720.28;5073757;28;20141;-91
2021/09/17 09:04:10;;;;;;;0.52;0.40;;;;;;;31.54;28.99;97729.94;5072414;28;20385;-90
2021/09/17 09:06:39;;;;;;;0.35;0.35;;;;;;;31.32;28.61;97724.69;5073739;28;20028;-91
2021/09/17 09:09:18;;;;;;;0.60;0.40;;;;;;;31.15;29.06;97724.41;5074157;28;20029;-91
2021/09/17 09:11:47;;;;;;;0.80;0.50;;;;;;;30.86;29.33;97729.28;5073860;28;20036;-91
2021/09/17 09:14:14;;;;;;;0.40;0.40;;;;;;;31.12;29.11;97725.38;5074017;28;20066;-91
2021/09/17 09:16:46;;;;;;;0.50;0.50;;;;;;;31.19;29.06;97729.88;5073585;28;20032;-92
2021/09/17 09:19:24;;;;;;;1.05;0.55;;;;;;;31.03;29.13;97724.72;5073691;28;20020;-91
2021/09/17 09:22:03;;;;;;;0.63;0.40;;;;;;;30.31;30.08;97731.84;5072366;28;20055;-91
2021/09/17 09:24:30;;;;;;;2.25;0.40;;;;;;;30.60;30.03;97726.22;5053661;28;20091;-91
2021/09/17 09:27:17;;;;;;;1.33;0.60;;;;;;;30.66;29.56;97727.91;5067754;28;20032;-91
2021/09/17 09:29:46;;;;;;;0.73;0.50;;;;;;;30.92;29.65;97725.31;5073616;28;20043;-91
2021/09/17 09:32:29;;;;;;;1.05;0.70;;;;;;;30.59;29.80;97721.84;5075431;28;20394;-91
2021/09/17 09:35:05;;;;;;;0.60;0.60;;;;;;;30.77;29.79;97721.66;5092541;28;20025;-92
2021/09/17 09:37:35;;;;;;;1.20;0.68;;;;;;;30.38;30.33;97718.13;5092402;28;20024;-91
2021/09/17 09:40:16;;;;;;;0.57;0.47;;;;;;;30.26;30.42;97721.97;5093835;28;20032;-90
2021/09/17 09:42:45;;;;;;;0.60;0.50;;;;;;;30.06;30.40;97721.78;5086411;28;20040;-92
2021/09/17 09:45:23;;;;;;;1.50;1.08;;;;;;;29.75;31.02;97715.72;5072850;28;20055;-91
2021/09/17 09:47:56;;;;;;;0.55;0.50;;;;;;;29.23;31.85;97719.91;5073375;28;20056;-91
2021/09/17 09:50:24;;;;;;;1.00;0.68;;;;;;;29.42;31.88;97715.75;5053188;28;20032;-92
2021/09/17 09:52:51;;;;;;;0.80;0.80;;;;;;;29.34;31.94;97718.13;5052811;28;20093;-92
2021/09/17 09:55:18;;;;;;;2.83;0.80;;;;;;;29.50;31.78;97713.34;5053045;28;20061;-91
2021/09/17 09:57:45;;;;;;;1.52;1.00;;;;;;;29.35;31.69;97716.09;5053084;28;20526;-92
2021/09/17 10:00:13;;;;;;;1.15;0.70;;;;;;;28.56;33.04;97715.34;5063930;28;20115;-93
2021/09/17 10:02:40;;;;;;;1.10;1.00;;;;;;;28.25;33.87;97714.75;5071695;28;20032;-91
2021/09/17 10:05:09;;;;;;;0.68;0.68;;;;;;;28.50;33.63;97719.25;5071976;28;20028;-91
2021/09/17 10:07:36;;;;;;;0.90;0.75;;;;;;;29.48;32.24;97716.63;5072911;28;20032;-91
2021/09/17 10:10:05;;;;;;;1.35;0.80;;;;;;;29.12;32.39;97720.41;5075579;28;20024;-92
2021/09/17 10:12:31;;;;;;;1.50;0.63;;;;;;;29.90;31.47;97719.41;5077086;28;20036;-93
2021/09/17 10:14:58;;;;;;;0.95;0.60;;;;;;;29.12;32.29;97720.41;5077125;28;20020;-92
2021/09/17 10:17:30;;;;;;;2.42;0.80;;;;;;;29.51;32.11;97720.56;5076639;28;20170;-92
2021/09/17 10:19:58;;;;;;;0.57;0.57;;;;;;;29.13;32.35;97710.66;5057037;28;20118;-92
2021/09/17 10:22:33;;;;;;;0.47;0.45;;;;;;;30.17;30.56;97713.53;5057083;28;20063;-92
2021/09/17 10:25:13;;;;;;;1.85;0.55;;;;;;;30.89;29.87;97714.16;5058482;28;20110;-92
2021/09/17 10:27:45;;;;;;;0.75;0.50;;;;;;;30.55;30.23;97710.69;5097511;28;20036;-93
2021/09/17 10:30:16;;;;;;;2.50;0.60;;;;;;;30.96;30.16;97708.88;5093639;28;20098;-92
2021/09/17 10:32:49;;;;;;;1.70;1.08;;;;;;;30.80;30.00;97708.56;5091278;28;20524;-92
2021/09/17 10:35:25;;;;;;;1.05;0.60;;;;;;;30.74;29.84;97705.63;5077093;28;20029;-92
2021/09/17 10:37:54;;;;;;;1.58;0.70;;;;;;;30.61;30.55;97711.59;5077056;28;20059;-92
2021/09/17 10:41:02;;;;;;;0.50;0.50;;;;;;;30.75;30.25;97712.88;5076764;28;20039;-92
2021/09/17 10:43:39;;;;;;;0.93;0.60;;;;;;;31.12;29.76;97710.41;5028415;28;20135;-91
2021/09/17 10:46:29;;;;;;;0.60;0.50;;;;;;;31.06;30.03;97713.19;5076317;28;20047;-91
2021/09/17 10:48:57;;;;;;;1.30;0.40;;;;;;;31.64;29.30;97717.19;5056994;28;20080;-91
2021/09/17 10:51:36;;;;;;;0.93;0.60;;;;;;;31.27;29.54;97720.47;5068667;28;20498;-92
2021/09/17 10:54:09;;;;;;;0.68;0.60;;;;;;;31.51;29.59;97716.75;5056293;28;20037;-92
2021/09/17 10:56:47;;;;;;;0.73;0.50;;;;;;;31.08;30.03;97701.34;5056173;28;20037;-92
2021/09/17 10:59:21;;;;;;;1.90;0.50;;;;;;;31.15;29.76;97703.78;5056403;28;20029;-92
2021/09/17 11:01:50;;;;;;;0.57;0.57;;;;;;;30.64;30.48;97695.66;5056136;28;20480;-92
2021/09/17 11:04:27;;;;;;;0.75;0.40;;;;;;;30.04;31.57;97704.50;5056158;28;20048;-92
2021/09/17 11:06:55;;;;;;;0.57;0.57;;;;;;;30.31;31.34;97706.34;5054982;28;20025;-91
2021/09/17 11:09:48;;;;;;;1.23;0.50;;;;;;;30.23;31.24;97710.81;5075308;28;20042;-92
2021/09/17 11:12:18;;;;;;;2.83;2.42;;;;;;;29.83;31.53;97709.22;5076503;28;20035;-91
2021/09/17 11:14:59;;;;;;;1.27;0.93;;;;;;;30.12;31.37;97707.75;5083119;28;20032;-91
2021/09/17 11:17:49;;;;;;;1.55;0.90;;;;;;;30.17;31.76;97712.75;5067423;28;20507;-92
2021/09/17 11:20:25;;;;;;;0.70;0.70;;;;;;;30.41;31.65;97702.19;5080075;28;20032;-92
2021/09/17 11:22:58;;;;;;;0.50;0.50;;;;;;;30.86;31.04;97701.72;5095857;28;20033;-92
2021/09/17 11:25:31;;;;;;;0.60;0.60;;;;;;;30.77;30.81;97708.28;5081242;28;20033;-92
2021/09/17 11:27:57;;;;;;;0.73;0.60;;;;;;;30.65;31.35;97700.84;5055648;28;20040;-92
2021/09/17 11:30:26;;;;;;;0.80;0.40;;;;;;;31.47;31.06;97694.22;5071104;28;20113;-92
2021/09/17 11:32:53;;;;;;;0.45;0.45;;;;;;;31.87;29.10;97696.31;5071935;28;20067;-92
2021/09/17 11:35:19;;;;;;;0.60;0.60;;;;;;;31.46;29.78;97692.66;5075901;28;20545;-93
2021/09/17 11:37:50;;;;;;;1.85;0.88;;;;;;;31.41;29.72;97694.09;5075617;28;20124;-93